sensor_id;sensor_type;location;lat;lon;timestamp;P1;durP1;ratioP1;P2;durP2;ratioP2
77876;SDS011;67251;50.844;7.978;2023-07-08T00:02:15;9.43;;;4.75;;
77876;SDS011;67251;50.844;7.978;2023-07-08T00:04:41;10.15;;;4.47;;
77876;SDS011;67251;50.844;7.978;2023-07-08T00:07:10;10.18;;;4.85;;
77876;SDS011;67251;50.844;7.978;2023-07-08T00:09:38;11.48;;;5.10;;
77876;SDS011;67251;50.844;7.978;2023-07-08T00:12:08;9.75;;;4.70;;
77876;SDS011;67251;50.844;7.978;2023-07-08T00:14:35;10.77;;;4.40;;
77876;SDS011;67251;50.844;7.978;2023-07-08T00:17:01;10.63;;;4.15;;
77876;SDS011;67251;50.844;7.978;2023-07-08T00:19:26;11.55;;;4.50;;
77876;SDS011;67251;50.844;7.978;2023-07-08T00:21:51;9.30;;;4.25;;
77876;SDS011;67251;50.844;7.978;2023-07-08T00:24:17;10.57;;;4.35;;
77876;SDS011;67251;50.844;7.978;2023-07-08T00:26:42;10.30;;;4.88;;
77876;SDS011;67251;50.844;7.978;2023-07-08T00:29:08;9.60;;;4.65;;
77876;SDS011;67251;50.844;7.978;2023-07-08T00:31:35;11.35;;;4.25;;
77876;SDS011;67251;50.844;7.978;2023-07-08T00:34:00;9.35;;;3.88;;
77876;SDS011;67251;50.844;7.978;2023-07-08T00:36:28;10.68;;;5.13;;
77876;SDS011;67251;50.844;7.978;2023-07-08T00:38:54;11.38;;;4.95;;
77876;SDS011;67251;50.844;7.978;2023-07-08T00:41:33;9.32;;;4.30;;
77876;SDS011;67251;50.844;7.978;2023-07-08T00:44:03;10.57;;;4.50;;
77876;SDS011;67251;50.844;7.978;2023-07-08T00:51:31;9.23;;;5.18;;
77876;SDS011;67251;50.844;7.978;2023-07-08T00:53:57;9.80;;;4.95;;
77876;SDS011;67251;50.844;7.978;2023-07-08T00:58:49;9.23;;;4.32;;
77876;SDS011;67251;50.844;7.978;2023-07-08T01:01:20;9.40;;;4.30;;
77876;SDS011;67251;50.844;7.978;2023-07-08T01:04:31;9.10;;;4.30;;
77876;SDS011;67251;50.844;7.978;2023-07-08T01:06:48;7.57;;;4.38;;
77876;SDS011;67251;50.844;7.978;2023-07-08T01:09:22;10.77;;;4.47;;
77876;SDS011;67251;50.844;7.978;2023-07-08T01:11:54;10.43;;;4.57;;
77876;SDS011;67251;50.844;7.978;2023-07-08T01:14:22;9.10;;;4.10;;
77876;SDS011;67251;50.844;7.978;2023-07-08T01:16:51;9.80;;;4.25;;
77876;SDS011;67251;50.844;7.978;2023-07-08T01:19:18;8.80;;;3.55;;
77876;SDS011;67251;50.844;7.978;2023-07-08T01:21:46;9.95;;;4.43;;
77876;SDS011;67251;50.844;7.978;2023-07-08T01:24:18;9.40;;;4.47;;
77876;SDS011;67251;50.844;7.978;2023-07-08T01:26:44;9.32;;;4.13;;
77876;SDS011;67251;50.844;7.978;2023-07-08T01:29:11;9.27;;;4.28;;
77876;SDS011;67251;50.844;7.978;2023-07-08T01:31:37;8.90;;;3.83;;
77876;SDS011;67251;50.844;7.978;2023-07-08T01:34:04;8.73;;;4.05;;
77876;SDS011;67251;50.844;7.978;2023-07-08T01:36:31;8.02;;;3.90;;
77876;SDS011;67251;50.844;7.978;2023-07-08T01:39:13;9.75;;;4.22;;
77876;SDS011;67251;50.844;7.978;2023-07-08T01:41:42;9.52;;;5.03;;
77876;SDS011;67251;50.844;7.978;2023-07-08T01:49:35;8.77;;;3.95;;
77876;SDS011;67251;50.844;7.978;2023-07-08T01:52:04;8.55;;;3.95;;
77876;SDS011;67251;50.844;7.978;2023-07-08T01:54:31;6.82;;;3.50;;
77876;SDS011;67251;50.844;7.978;2023-07-08T01:56:57;8.13;;;3.75;;
77876;SDS011;67251;50.844;7.978;2023-07-08T01:59:23;7.25;;;3.90;;
77876;SDS011;67251;50.844;7.978;2023-07-08T02:01:49;10.43;;;3.78;;
77876;SDS011;67251;50.844;7.978;2023-07-08T02:04:19;9.88;;;4.03;;
77876;SDS011;67251;50.844;7.978;2023-07-08T02:06:50;8.68;;;4.15;;
77876;SDS011;67251;50.844;7.978;2023-07-08T02:09:17;9.02;;;3.63;;
77876;SDS011;67251;50.844;7.978;2023-07-08T02:11:42;9.35;;;4.10;;
77876;SDS011;67251;50.844;7.978;2023-07-08T02:14:07;7.57;;;3.80;;
77876;SDS011;67251;50.844;7.978;2023-07-08T02:16:33;8.23;;;3.47;;
77876;SDS011;67251;50.844;7.978;2023-07-08T02:18:58;8.90;;;3.83;;
77876;SDS011;67251;50.844;7.978;2023-07-08T02:21:23;8.50;;;3.88;;
77876;SDS011;67251;50.844;7.978;2023-07-08T02:23:49;7.78;;;4.10;;
77876;SDS011;67251;50.844;7.978;2023-07-08T02:26:16;8.00;;;3.90;;
77876;SDS011;67251;50.844;7.978;2023-07-08T02:28:42;9.38;;;4.25;;
77876;SDS011;67251;50.844;7.978;2023-07-08T02:31:07;7.28;;;3.85;;
77876;SDS011;67251;50.844;7.978;2023-07-08T02:33:32;10.20;;;4.30;;
77876;SDS011;67251;50.844;7.978;2023-07-08T02:35:58;9.95;;;4.10;;
77876;SDS011;67251;50.844;7.978;2023-07-08T02:38:25;11.07;;;4.55;;
77876;SDS011;67251;50.844;7.978;2023-07-08T02:40:51;10.27;;;4.22;;
77876;SDS011;67251;50.844;7.978;2023-07-08T02:43:17;10.07;;;3.90;;
77876;SDS011;67251;50.844;7.978;2023-07-08T02:45:42;10.70;;;4.07;;
77876;SDS011;67251;50.844;7.978;2023-07-08T02:48:07;8.05;;;3.50;;
77876;SDS011;67251;50.844;7.978;2023-07-08T02:50:33;7.95;;;3.70;;
77876;SDS011;67251;50.844;7.978;2023-07-08T02:52:58;9.82;;;3.95;;
77876;SDS011;67251;50.844;7.978;2023-07-08T02:55:23;8.93;;;4.00;;
77876;SDS011;67251;50.844;7.978;2023-07-08T02:57:49;8.93;;;3.92;;
77876;SDS011;67251;50.844;7.978;2023-07-08T03:00:14;9.15;;;4.00;;
77876;SDS011;67251;50.844;7.978;2023-07-08T03:02:40;8.48;;;3.95;;
77876;SDS011;67251;50.844;7.978;2023-07-08T03:05:05;10.18;;;3.53;;
77876;SDS011;67251;50.844;7.978;2023-07-08T03:07:31;8.57;;;4.10;;
77876;SDS011;67251;50.844;7.978;2023-07-08T03:09:57;8.50;;;4.03;;
77876;SDS011;67251;50.844;7.978;2023-07-08T03:12:22;8.07;;;3.45;;
77876;SDS011;67251;50.844;7.978;2023-07-08T03:14:47;8.30;;;3.40;;
77876;SDS011;67251;50.844;7.978;2023-07-08T03:17:13;8.05;;;3.13;;
77876;SDS011;67251;50.844;7.978;2023-07-08T03:19:38;7.93;;;3.75;;
77876;SDS011;67251;50.844;7.978;2023-07-08T03:22:03;8.43;;;3.60;;
77876;SDS011;67251;50.844;7.978;2023-07-08T03:24:31;8.60;;;3.75;;
77876;SDS011;67251;50.844;7.978;2023-07-08T03:26:57;8.82;;;3.45;;
77876;SDS011;67251;50.844;7.978;2023-07-08T03:29:22;8.30;;;3.83;;
77876;SDS011;67251;50.844;7.978;2023-07-08T03:31:48;8.25;;;4.18;;
77876;SDS011;67251;50.844;7.978;2023-07-08T03:34:14;9.43;;;3.58;;
77876;SDS011;67251;50.844;7.978;2023-07-08T03:36:44;10.98;;;4.18;;
77876;SDS011;67251;50.844;7.978;2023-07-08T03:39:16;7.18;;;3.45;;
77876;SDS011;67251;50.844;7.978;2023-07-08T03:41:42;8.05;;;3.38;;
77876;SDS011;67251;50.844;7.978;2023-07-08T03:44:08;6.45;;;3.55;;
77876;SDS011;67251;50.844;7.978;2023-07-08T03:46:33;9.07;;;4.22;;
77876;SDS011;67251;50.844;7.978;2023-07-08T03:48:59;7.88;;;3.38;;
77876;SDS011;67251;50.844;7.978;2023-07-08T03:51:26;8.65;;;4.00;;
77876;SDS011;67251;50.844;7.978;2023-07-08T03:53:54;9.32;;;3.92;;
77876;SDS011;67251;50.844;7.978;2023-07-08T03:56:19;8.85;;;3.95;;
77876;SDS011;67251;50.844;7.978;2023-07-08T03:58:45;8.25;;;3.45;;
77876;SDS011;67251;50.844;7.978;2023-07-08T04:01:14;8.15;;;3.92;;
77876;SDS011;67251;50.844;7.978;2023-07-08T04:03:41;7.90;;;3.60;;
77876;SDS011;67251;50.844;7.978;2023-07-08T04:06:07;8.60;;;3.88;;
77876;SDS011;67251;50.844;7.978;2023-07-08T04:08:32;8.48;;;3.60;;
77876;SDS011;67251;50.844;7.978;2023-07-08T04:10:58;7.80;;;3.85;;
77876;SDS011;67251;50.844;7.978;2023-07-08T04:13:23;7.55;;;3.92;;
77876;SDS011;67251;50.844;7.978;2023-07-08T04:16:13;7.68;;;3.60;;
77876;SDS011;67251;50.844;7.978;2023-07-08T04:18:40;8.05;;;3.80;;
77876;SDS011;67251;50.844;7.978;2023-07-08T04:21:06;7.90;;;3.42;;
77876;SDS011;67251;50.844;7.978;2023-07-08T04:23:32;7.47;;;3.50;;
77876;SDS011;67251;50.844;7.978;2023-07-08T04:25:57;8.18;;;3.92;;
77876;SDS011;67251;50.844;7.978;2023-07-08T04:28:23;7.97;;;3.60;;
77876;SDS011;67251;50.844;7.978;2023-07-08T04:30:48;7.88;;;3.65;;
77876;SDS011;67251;50.844;7.978;2023-07-08T04:33:14;8.98;;;3.80;;
77876;SDS011;67251;50.844;7.978;2023-07-08T04:35:43;9.90;;;4.32;;
77876;SDS011;67251;50.844;7.978;2023-07-08T04:38:14;8.63;;;3.58;;
77876;SDS011;67251;50.844;7.978;2023-07-08T04:40:42;7.80;;;4.13;;
77876;SDS011;67251;50.844;7.978;2023-07-08T04:43:08;9.35;;;3.35;;
77876;SDS011;67251;50.844;7.978;2023-07-08T04:45:40;7.05;;;3.33;;
77876;SDS011;67251;50.844;7.978;2023-07-08T04:48:15;6.68;;;3.53;;
77876;SDS011;67251;50.844;7.978;2023-07-08T04:50:42;9.63;;;3.22;;
77876;SDS011;67251;50.844;7.978;2023-07-08T04:53:10;6.10;;;2.85;;
77876;SDS011;67251;50.844;7.978;2023-07-08T04:55:38;9.48;;;3.67;;
77876;SDS011;67251;50.844;7.978;2023-07-08T04:58:06;8.68;;;3.72;;
77876;SDS011;67251;50.844;7.978;2023-07-08T05:00:32;9.32;;;4.03;;
77876;SDS011;67251;50.844;7.978;2023-07-08T05:02:57;8.07;;;3.28;;
77876;SDS011;67251;50.844;7.978;2023-07-08T05:05:24;6.10;;;2.97;;
77876;SDS011;67251;50.844;7.978;2023-07-08T05:07:49;7.43;;;2.95;;
77876;SDS011;67251;50.844;7.978;2023-07-08T05:10:15;7.07;;;3.40;;
77876;SDS011;67251;50.844;7.978;2023-07-08T05:12:41;8.32;;;3.88;;
77876;SDS011;67251;50.844;7.978;2023-07-08T05:15:07;8.52;;;3.80;;
77876;SDS011;67251;50.844;7.978;2023-07-08T05:17:33;8.73;;;3.75;;
77876;SDS011;67251;50.844;7.978;2023-07-08T05:19:59;7.57;;;3.10;;
77876;SDS011;67251;50.844;7.978;2023-07-08T05:22:26;8.45;;;3.55;;
77876;SDS011;67251;50.844;7.978;2023-07-08T05:24:52;8.23;;;3.90;;
77876;SDS011;67251;50.844;7.978;2023-07-08T05:27:20;6.72;;;3.33;;
77876;SDS011;67251;50.844;7.978;2023-07-08T05:29:49;10.23;;;3.78;;
77876;SDS011;67251;50.844;7.978;2023-07-08T05:32:16;6.72;;;3.33;;
77876;SDS011;67251;50.844;7.978;2023-07-08T05:34:42;8.30;;;3.65;;
77876;SDS011;67251;50.844;7.978;2023-07-08T05:37:10;7.32;;;3.63;;
77876;SDS011;67251;50.844;7.978;2023-07-08T05:39:36;8.23;;;3.70;;
77876;SDS011;67251;50.844;7.978;2023-07-08T05:42:02;7.88;;;3.83;;
77876;SDS011;67251;50.844;7.978;2023-07-08T05:44:27;8.57;;;3.30;;
77876;SDS011;67251;50.844;7.978;2023-07-08T05:46:53;7.93;;;3.40;;
77876;SDS011;67251;50.844;7.978;2023-07-08T05:49:18;10.20;;;3.70;;
77876;SDS011;67251;50.844;7.978;2023-07-08T05:51:44;7.32;;;3.60;;
77876;SDS011;67251;50.844;7.978;2023-07-08T05:54:10;7.53;;;3.88;;
77876;SDS011;67251;50.844;7.978;2023-07-08T05:56:36;8.07;;;3.60;;
77876;SDS011;67251;50.844;7.978;2023-07-08T05:59:02;6.80;;;3.38;;
77876;SDS011;67251;50.844;7.978;2023-07-08T06:01:28;7.70;;;3.85;;
77876;SDS011;67251;50.844;7.978;2023-07-08T06:03:53;9.65;;;4.20;;
77876;SDS011;67251;50.844;7.978;2023-07-08T06:06:23;7.68;;;3.72;;
77876;SDS011;67251;50.844;7.978;2023-07-08T06:08:48;7.72;;;3.80;;
77876;SDS011;67251;50.844;7.978;2023-07-08T06:11:14;8.27;;;3.47;;
77876;SDS011;67251;50.844;7.978;2023-07-08T06:13:39;6.65;;;3.45;;
77876;SDS011;67251;50.844;7.978;2023-07-08T06:16:04;7.15;;;3.83;;
77876;SDS011;67251;50.844;7.978;2023-07-08T06:18:30;7.18;;;3.22;;
77876;SDS011;67251;50.844;7.978;2023-07-08T06:20:56;8.43;;;3.53;;
77876;SDS011;67251;50.844;7.978;2023-07-08T06:23:23;7.82;;;3.88;;
77876;SDS011;67251;50.844;7.978;2023-07-08T06:25:48;8.38;;;3.90;;
77876;SDS011;67251;50.844;7.978;2023-07-08T06:28:14;7.72;;;4.13;;
77876;SDS011;67251;50.844;7.978;2023-07-08T06:30:39;6.38;;;3.58;;
77876;SDS011;67251;50.844;7.978;2023-07-08T06:33:05;6.82;;;3.72;;
77876;SDS011;67251;50.844;7.978;2023-07-08T06:35:30;7.55;;;3.50;;
77876;SDS011;67251;50.844;7.978;2023-07-08T06:37:56;8.48;;;3.35;;
77876;SDS011;67251;50.844;7.978;2023-07-08T06:40:22;6.45;;;3.53;;
77876;SDS011;67251;50.844;7.978;2023-07-08T06:42:47;9.80;;;3.13;;
77876;SDS011;67251;50.844;7.978;2023-07-08T06:45:12;6.47;;;3.40;;
77876;SDS011;67251;50.844;7.978;2023-07-08T06:47:38;6.43;;;3.08;;
77876;SDS011;67251;50.844;7.978;2023-07-08T06:50:04;7.57;;;3.70;;
77876;SDS011;67251;50.844;7.978;2023-07-08T06:52:30;7.07;;;3.20;;
77876;SDS011;67251;50.844;7.978;2023-07-08T06:54:59;6.53;;;3.60;;
77876;SDS011;67251;50.844;7.978;2023-07-08T06:57:26;8.48;;;3.33;;
77876;SDS011;67251;50.844;7.978;2023-07-08T06:59:51;8.13;;;3.80;;
77876;SDS011;67251;50.844;7.978;2023-07-08T07:02:17;7.38;;;3.90;;
77876;SDS011;67251;50.844;7.978;2023-07-08T07:04:42;7.78;;;4.03;;
77876;SDS011;67251;50.844;7.978;2023-07-08T07:07:08;7.15;;;3.47;;
77876;SDS011;67251;50.844;7.978;2023-07-08T07:09:34;6.55;;;4.07;;
77876;SDS011;67251;50.844;7.978;2023-07-08T07:12:00;6.50;;;3.58;;
77876;SDS011;67251;50.844;7.978;2023-07-08T07:14:26;8.57;;;4.00;;
77876;SDS011;67251;50.844;7.978;2023-07-08T07:16:51;6.43;;;3.55;;
77876;SDS011;67251;50.844;7.978;2023-07-08T07:19:16;6.95;;;3.35;;
77876;SDS011;67251;50.844;7.978;2023-07-08T07:21:42;7.22;;;3.33;;
77876;SDS011;67251;50.844;7.978;2023-07-08T07:24:07;6.38;;;2.97;;
77876;SDS011;67251;50.844;7.978;2023-07-08T07:26:33;7.32;;;3.00;;
77876;SDS011;67251;50.844;7.978;2023-07-08T07:28:58;5.75;;;2.70;;
77876;SDS011;67251;50.844;7.978;2023-07-08T07:31:23;6.00;;;3.20;;
77876;SDS011;67251;50.844;7.978;2023-07-08T07:33:49;6.10;;;3.08;;
77876;SDS011;67251;50.844;7.978;2023-07-08T07:36:15;6.57;;;3.45;;
77876;SDS011;67251;50.844;7.978;2023-07-08T07:38:40;8.75;;;3.03;;
77876;SDS011;67251;50.844;7.978;2023-07-08T07:41:07;6.32;;;3.05;;
77876;SDS011;67251;50.844;7.978;2023-07-08T07:43:36;8.07;;;3.17;;
77876;SDS011;67251;50.844;7.978;2023-07-08T07:46:01;6.05;;;2.78;;
77876;SDS011;67251;50.844;7.978;2023-07-08T07:48:30;9.18;;;3.80;;
77876;SDS011;67251;50.844;7.978;2023-07-08T07:50:56;6.28;;;3.22;;
77876;SDS011;67251;50.844;7.978;2023-07-08T07:53:21;5.82;;;3.08;;
77876;SDS011;67251;50.844;7.978;2023-07-08T07:55:46;6.47;;;3.60;;
77876;SDS011;67251;50.844;7.978;2023-07-08T07:58:13;6.35;;;3.50;;
77876;SDS011;67251;50.844;7.978;2023-07-08T08:00:38;7.03;;;3.78;;
77876;SDS011;67251;50.844;7.978;2023-07-08T08:03:04;8.90;;;3.25;;
77876;SDS011;67251;50.844;7.978;2023-07-08T08:05:29;7.18;;;3.55;;
77876;SDS011;67251;50.844;7.978;2023-07-08T08:07:55;6.22;;;3.35;;
77876;SDS011;67251;50.844;7.978;2023-07-08T08:10:21;6.55;;;3.38;;
77876;SDS011;67251;50.844;7.978;2023-07-08T08:12:47;7.20;;;3.50;;
77876;SDS011;67251;50.844;7.978;2023-07-08T08:15:15;6.00;;;3.35;;
77876;SDS011;67251;50.844;7.978;2023-07-08T08:17:41;7.53;;;3.42;;
77876;SDS011;67251;50.844;7.978;2023-07-08T08:20:07;6.05;;;3.33;;
77876;SDS011;67251;50.844;7.978;2023-07-08T08:22:33;6.95;;;3.58;;
77876;SDS011;67251;50.844;7.978;2023-07-08T08:24:58;6.60;;;3.90;;
77876;SDS011;67251;50.844;7.978;2023-07-08T08:27:23;6.88;;;3.53;;
77876;SDS011;67251;50.844;7.978;2023-07-08T08:29:49;7.72;;;3.55;;
77876;SDS011;67251;50.844;7.978;2023-07-08T08:32:15;6.68;;;3.58;;
77876;SDS011;67251;50.844;7.978;2023-07-08T08:34:41;6.38;;;3.53;;
77876;SDS011;67251;50.844;7.978;2023-07-08T08:37:07;7.47;;;3.40;;
77876;SDS011;67251;50.844;7.978;2023-07-08T08:39:33;7.05;;;3.53;;
77876;SDS011;67251;50.844;7.978;2023-07-08T08:41:58;6.95;;;3.42;;
77876;SDS011;67251;50.844;7.978;2023-07-08T08:44:26;8.43;;;3.53;;
77876;SDS011;67251;50.844;7.978;2023-07-08T08:49:56;8.50;;;3.67;;
77876;SDS011;67251;50.844;7.978;2023-07-08T08:52:25;6.20;;;3.22;;
77876;SDS011;67251;50.844;7.978;2023-07-08T08:54:51;6.63;;;3.35;;
77876;SDS011;67251;50.844;7.978;2023-07-08T09:02:36;7.07;;;3.47;;
77876;SDS011;67251;50.844;7.978;2023-07-08T09:05:08;7.03;;;3.33;;
77876;SDS011;67251;50.844;7.978;2023-07-08T09:07:41;7.07;;;3.70;;
77876;SDS011;67251;50.844;7.978;2023-07-08T09:13:04;5.43;;;3.05;;
77876;SDS011;67251;50.844;7.978;2023-07-08T09:15:32;6.95;;;3.80;;
77876;SDS011;67251;50.844;7.978;2023-07-08T09:17:58;7.03;;;3.45;;
77876;SDS011;67251;50.844;7.978;2023-07-08T09:20:35;5.72;;;3.33;;
77876;SDS011;67251;50.844;7.978;2023-07-08T09:26:05;6.03;;;3.40;;
77876;SDS011;67251;50.844;7.978;2023-07-08T09:28:41;7.15;;;3.10;;
77876;SDS011;67251;50.844;7.978;2023-07-08T09:31:10;5.50;;;3.20;;
77876;SDS011;67251;50.844;7.978;2023-07-08T09:33:51;5.72;;;3.15;;
77876;SDS011;67251;50.844;7.978;2023-07-08T09:36:18;5.55;;;3.08;;
77876;SDS011;67251;50.844;7.978;2023-07-08T09:38:48;6.05;;;3.22;;
77876;SDS011;67251;50.844;7.978;2023-07-08T09:41:19;6.45;;;3.17;;
77876;SDS011;67251;50.844;7.978;2023-07-08T09:44:00;6.18;;;3.15;;
77876;SDS011;67251;50.844;7.978;2023-07-08T09:46:40;8.65;;;2.92;;
77876;SDS011;67251;50.844;7.978;2023-07-08T09:49:09;7.28;;;3.28;;
77876;SDS011;67251;50.844;7.978;2023-07-08T09:51:47;5.85;;;2.83;;
77876;SDS011;67251;50.844;7.978;2023-07-08T09:54:15;6.43;;;3.00;;
77876;SDS011;67251;50.844;7.978;2023-07-08T09:56:43;8.68;;;3.10;;
77876;SDS011;67251;50.844;7.978;2023-07-08T09:59:16;7.43;;;3.03;;
77876;SDS011;67251;50.844;7.978;2023-07-08T10:01:44;6.53;;;3.25;;
77876;SDS011;67251;50.844;7.978;2023-07-08T10:04:10;5.05;;;2.78;;
77876;SDS011;67251;50.844;7.978;2023-07-08T10:06:36;5.78;;;2.85;;
77876;SDS011;67251;50.844;7.978;2023-07-08T10:09:08;6.43;;;2.70;;
77876;SDS011;67251;50.844;7.978;2023-07-08T10:11:41;5.57;;;2.90;;
77876;SDS011;67251;50.844;7.978;2023-07-08T10:14:23;5.63;;;2.78;;
77876;SDS011;67251;50.844;7.978;2023-07-08T10:16:52;5.80;;;2.85;;
77876;SDS011;67251;50.844;7.978;2023-07-08T10:19:20;6.00;;;2.97;;
77876;SDS011;67251;50.844;7.978;2023-07-08T10:22:08;7.18;;;3.00;;
77876;SDS011;67251;50.844;7.978;2023-07-08T10:28:21;6.55;;;3.08;;
77876;SDS011;67251;50.844;7.978;2023-07-08T10:33:57;6.35;;;3.00;;
77876;SDS011;67251;50.844;7.978;2023-07-08T10:39:12;6.47;;;3.10;;
77876;SDS011;67251;50.844;7.978;2023-07-08T10:47:42;8.52;;;3.70;;
77876;SDS011;67251;50.844;7.978;2023-07-08T10:55:53;6.80;;;3.33;;
77876;SDS011;67251;50.844;7.978;2023-07-08T11:03:59;7.57;;;3.65;;
77876;SDS011;67251;50.844;7.978;2023-07-08T11:06:55;8.52;;;3.10;;
77876;SDS011;67251;50.844;7.978;2023-07-08T11:09:29;6.60;;;3.38;;
77876;SDS011;67251;50.844;7.978;2023-07-08T11:12:07;5.63;;;3.00;;
77876;SDS011;67251;50.844;7.978;2023-07-08T11:14:45;6.07;;;3.20;;
77876;SDS011;67251;50.844;7.978;2023-07-08T11:17:26;5.47;;;2.85;;
77876;SDS011;67251;50.844;7.978;2023-07-08T11:19:56;6.40;;;3.10;;
77876;SDS011;67251;50.844;7.978;2023-07-08T11:22:27;7.03;;;3.13;;
77876;SDS011;67251;50.844;7.978;2023-07-08T11:24:56;5.80;;;2.92;;
77876;SDS011;67251;50.844;7.978;2023-07-08T11:30:28;6.63;;;3.35;;
77876;SDS011;67251;50.844;7.978;2023-07-08T11:32:57;8.10;;;3.47;;
77876;SDS011;67251;50.844;7.978;2023-07-08T11:35:47;8.15;;;3.42;;
77876;SDS011;67251;50.844;7.978;2023-07-08T11:38:17;6.93;;;3.15;;
77876;SDS011;67251;50.844;7.978;2023-07-08T11:40:52;5.95;;;2.90;;
77876;SDS011;67251;50.844;7.978;2023-07-08T11:43:26;6.97;;;2.95;;
77876;SDS011;67251;50.844;7.978;2023-07-08T11:46:02;7.05;;;3.15;;
77876;SDS011;67251;50.844;7.978;2023-07-08T11:48:31;8.00;;;3.42;;
77876;SDS011;67251;50.844;7.978;2023-07-08T11:51:07;7.68;;;3.53;;
77876;SDS011;67251;50.844;7.978;2023-07-08T11:53:35;7.40;;;2.92;;
77876;SDS011;67251;50.844;7.978;2023-07-08T12:03:50;8.23;;;3.40;;
77876;SDS011;67251;50.844;7.978;2023-07-08T12:08:59;8.10;;;3.20;;
77876;SDS011;67251;50.844;7.978;2023-07-08T12:11:39;8.15;;;3.70;;
77876;SDS011;67251;50.844;7.978;2023-07-08T12:14:08;8.82;;;3.47;;
77876;SDS011;67251;50.844;7.978;2023-07-08T12:16:33;5.72;;;2.78;;
77876;SDS011;67251;50.844;7.978;2023-07-08T12:18:59;7.55;;;3.38;;
77876;SDS011;67251;50.844;7.978;2023-07-08T12:21:26;7.97;;;3.35;;
77876;SDS011;67251;50.844;7.978;2023-07-08T12:23:52;7.20;;;3.35;;
77876;SDS011;67251;50.844;7.978;2023-07-08T12:26:19;7.85;;;3.33;;
77876;SDS011;67251;50.844;7.978;2023-07-08T12:28:46;7.65;;;3.30;;
77876;SDS011;67251;50.844;7.978;2023-07-08T12:31:19;6.55;;;2.95;;
77876;SDS011;67251;50.844;7.978;2023-07-08T12:36:13;9.30;;;3.40;;
77876;SDS011;67251;50.844;7.978;2023-07-08T12:38:43;7.78;;;2.78;;
77876;SDS011;67251;50.844;7.978;2023-07-08T12:41:20;8.40;;;3.30;;
77876;SDS011;67251;50.844;7.978;2023-07-08T12:43:47;7.47;;;3.28;;
77876;SDS011;67251;50.844;7.978;2023-07-08T12:46:14;7.28;;;3.08;;
77876;SDS011;67251;50.844;7.978;2023-07-08T12:48:41;7.95;;;3.95;;
77876;SDS011;67251;50.844;7.978;2023-07-08T12:51:11;7.43;;;3.05;;
77876;SDS011;67251;50.844;7.978;2023-07-08T12:53:44;7.53;;;3.88;;
77876;SDS011;67251;50.844;7.978;2023-07-08T12:56:09;8.07;;;3.45;;
77876;SDS011;67251;50.844;7.978;2023-07-08T12:58:37;7.85;;;3.17;;
77876;SDS011;67251;50.844;7.978;2023-07-08T13:01:06;6.82;;;3.17;;
77876;SDS011;67251;50.844;7.978;2023-07-08T13:03:36;7.35;;;3.35;;
77876;SDS011;67251;50.844;7.978;2023-07-08T13:06:05;7.38;;;3.42;;
77876;SDS011;67251;50.844;7.978;2023-07-08T13:08:35;8.20;;;3.40;;
77876;SDS011;67251;50.844;7.978;2023-07-08T13:11:02;6.40;;;3.17;;
77876;SDS011;67251;50.844;7.978;2023-07-08T13:13:32;6.95;;;2.90;;
77876;SDS011;67251;50.844;7.978;2023-07-08T13:16:03;7.60;;;3.30;;
77876;SDS011;67251;50.844;7.978;2023-07-08T13:18:32;6.97;;;3.10;;
77876;SDS011;67251;50.844;7.978;2023-07-08T13:20:59;8.27;;;3.40;;
77876;SDS011;67251;50.844;7.978;2023-07-08T13:23:26;7.45;;;3.13;;
77876;SDS011;67251;50.844;7.978;2023-07-08T13:25:53;8.02;;;3.20;;
77876;SDS011;67251;50.844;7.978;2023-07-08T13:28:24;7.85;;;3.00;;
77876;SDS011;67251;50.844;7.978;2023-07-08T13:30:57;8.65;;;3.30;;
77876;SDS011;67251;50.844;7.978;2023-07-08T13:33:29;6.43;;;2.83;;
77876;SDS011;67251;50.844;7.978;2023-07-08T13:35:56;8.57;;;3.60;;
77876;SDS011;67251;50.844;7.978;2023-07-08T13:38:23;8.52;;;3.10;;
77876;SDS011;67251;50.844;7.978;2023-07-08T13:40:56;7.03;;;3.47;;
77876;SDS011;67251;50.844;7.978;2023-07-08T13:43:25;8.70;;;3.50;;
77876;SDS011;67251;50.844;7.978;2023-07-08T13:45:52;8.00;;;3.67;;
77876;SDS011;67251;50.844;7.978;2023-07-08T13:48:28;8.45;;;3.28;;
77876;SDS011;67251;50.844;7.978;2023-07-08T13:50:59;7.82;;;3.47;;
77876;SDS011;67251;50.844;7.978;2023-07-08T13:56:03;7.95;;;3.63;;
77876;SDS011;67251;50.844;7.978;2023-07-08T13:58:41;7.68;;;3.13;;
77876;SDS011;67251;50.844;7.978;2023-07-08T14:01:10;8.57;;;3.60;;
77876;SDS011;67251;50.844;7.978;2023-07-08T14:03:43;8.50;;;3.47;;
77876;SDS011;67251;50.844;7.978;2023-07-08T14:06:13;7.25;;;3.65;;
77876;SDS011;67251;50.844;7.978;2023-07-08T14:08:40;7.57;;;3.67;;
77876;SDS011;67251;50.844;7.978;2023-07-08T14:11:06;8.23;;;3.72;;
77876;SDS011;67251;50.844;7.978;2023-07-08T14:13:31;8.07;;;3.42;;
77876;SDS011;67251;50.844;7.978;2023-07-08T14:15:57;6.82;;;3.72;;
77876;SDS011;67251;50.844;7.978;2023-07-08T14:18:22;8.10;;;3.85;;
77876;SDS011;67251;50.844;7.978;2023-07-08T14:20:48;7.15;;;3.83;;
77876;SDS011;67251;50.844;7.978;2023-07-08T14:23:13;8.85;;;3.58;;
77876;SDS011;67251;50.844;7.978;2023-07-08T14:25:39;8.93;;;4.13;;
77876;SDS011;67251;50.844;7.978;2023-07-08T14:28:05;9.45;;;4.10;;
77876;SDS011;67251;50.844;7.978;2023-07-08T14:30:31;8.05;;;3.55;;
77876;SDS011;67251;50.844;7.978;2023-07-08T14:32:57;7.85;;;3.50;;
77876;SDS011;67251;50.844;7.978;2023-07-08T14:35:26;8.27;;;3.78;;
77876;SDS011;67251;50.844;7.978;2023-07-08T14:37:53;8.93;;;4.90;;
77876;SDS011;67251;50.844;7.978;2023-07-08T14:43:32;8.23;;;3.80;;
77876;SDS011;67251;50.844;7.978;2023-07-08T14:45:50;6.57;;;3.80;;
77876;SDS011;67251;50.844;7.978;2023-07-08T14:48:18;8.40;;;3.78;;
77876;SDS011;67251;50.844;7.978;2023-07-08T14:50:44;9.45;;;3.97;;
77876;SDS011;67251;50.844;7.978;2023-07-08T14:53:10;9.27;;;4.07;;
77876;SDS011;67251;50.844;7.978;2023-07-08T14:58:04;7.47;;;3.67;;
77876;SDS011;67251;50.844;7.978;2023-07-08T15:00:30;6.88;;;3.60;;
77876;SDS011;67251;50.844;7.978;2023-07-08T15:02:56;7.05;;;3.28;;
77876;SDS011;67251;50.844;7.978;2023-07-08T15:05:22;8.18;;;4.05;;
77876;SDS011;67251;50.844;7.978;2023-07-08T15:10:16;8.10;;;3.58;;
77876;SDS011;67251;50.844;7.978;2023-07-08T15:12:42;8.98;;;3.60;;
77876;SDS011;67251;50.844;7.978;2023-07-08T15:15:27;9.32;;;3.75;;
77876;SDS011;67251;50.844;7.978;2023-07-08T15:17:55;8.73;;;3.65;;
77876;SDS011;67251;50.844;7.978;2023-07-08T15:20:25;7.15;;;3.22;;
77876;SDS011;67251;50.844;7.978;2023-07-08T15:22:51;8.13;;;3.60;;
77876;SDS011;67251;50.844;7.978;2023-07-08T15:25:17;9.48;;;3.50;;
77876;SDS011;67251;50.844;7.978;2023-07-08T15:27:45;9.60;;;4.00;;
77876;SDS011;67251;50.844;7.978;2023-07-08T15:30:16;8.93;;;3.90;;
77876;SDS011;67251;50.844;7.978;2023-07-08T15:32:44;11.80;;;3.97;;
77876;SDS011;67251;50.844;7.978;2023-07-08T15:35:14;7.75;;;3.88;;
77876;SDS011;67251;50.844;7.978;2023-07-08T15:37:42;8.07;;;3.58;;
77876;SDS011;67251;50.844;7.978;2023-07-08T15:40:08;7.93;;;3.85;;
77876;SDS011;67251;50.844;7.978;2023-07-08T15:42:37;6.75;;;3.78;;
77876;SDS011;67251;50.844;7.978;2023-07-08T15:45:13;8.32;;;3.50;;
77876;SDS011;67251;50.844;7.978;2023-07-08T15:47:39;10.30;;;3.58;;
77876;SDS011;67251;50.844;7.978;2023-07-08T15:50:12;7.28;;;3.20;;
77876;SDS011;67251;50.844;7.978;2023-07-08T15:52:39;7.50;;;3.38;;
77876;SDS011;67251;50.844;7.978;2023-07-08T15:55:06;8.95;;;3.88;;
77876;SDS011;67251;50.844;7.978;2023-07-08T15:57:33;6.90;;;3.28;;
77876;SDS011;67251;50.844;7.978;2023-07-08T16:00:02;6.97;;;3.40;;
77876;SDS011;67251;50.844;7.978;2023-07-08T16:02:29;6.90;;;3.30;;
77876;SDS011;67251;50.844;7.978;2023-07-08T16:04:55;8.57;;;3.53;;
77876;SDS011;67251;50.844;7.978;2023-07-08T16:07:20;8.48;;;3.90;;
77876;SDS011;67251;50.844;7.978;2023-07-08T16:09:46;7.45;;;3.67;;
77876;SDS011;67251;50.844;7.978;2023-07-08T16:12:12;6.55;;;3.30;;